createdAt,value
2023-02-13T00:02:47.226Z,6.60
2023-02-13T00:07:49.174Z,6.50
2023-02-13T00:12:51.166Z,6.50
2023-02-13T00:17:53.055Z,6.50
2023-02-13T00:22:54.973Z,6.40
2023-02-13T00:27:56.901Z,6.40
2023-02-13T00:32:58.694Z,6.40
2023-02-13T00:38:00.617Z,6.30
2023-02-13T00:43:02.531Z,6.30
2023-02-13T00:48:04.584Z,6.20
2023-02-13T00:53:06.416Z,6.20
2023-02-13T00:58:08.340Z,6.10
2023-02-13T01:03:10.472Z,6.00
2023-02-13T01:08:13.453Z,5.90
2023-02-13T01:13:18.521Z,6.00
2023-02-13T01:18:21.096Z,6.00
2023-02-13T01:23:23.086Z,6.10
2023-02-13T01:28:27.056Z,6.20
2023-02-13T01:33:29.873Z,6.20
2023-02-13T01:38:31.862Z,6.30
2023-02-13T01:43:53.391Z,6.40
2023-02-13T01:48:59.404Z,6.40
2023-02-13T01:54:14.588Z,6.50
2023-02-13T01:59:22.274Z,6.50
2023-02-13T02:04:31.490Z,6.60
2023-02-13T02:09:37.719Z,6.60
2023-02-13T02:14:41.282Z,6.50
2023-02-13T02:19:45.009Z,6.60
2023-02-13T02:25:20.239Z,6.60
2023-02-13T02:30:34.158Z,6.60
2023-02-13T02:36:06.833Z,6.60
2023-02-13T02:41:43.060Z,6.70
2023-02-13T02:47:13.698Z,6.80
2023-02-13T02:52:24.810Z,6.90
2023-02-13T02:57:56.984Z,6.90
2023-02-13T03:03:17.637Z,7.00
2023-02-13T03:08:39.764Z,7.00
2023-02-13T03:13:47.851Z,7.10
2023-02-13T03:19:16.448Z,7.10
2023-02-13T03:24:31.232Z,7.20
2023-02-13T03:29:57.895Z,7.30
2023-02-13T03:35:56.618Z,7.30
2023-02-13T03:41:19.916Z,7.40
2023-02-13T03:46:25.733Z,7.30
2023-02-13T03:51:58.259Z,7.30
2023-02-13T03:57:19.014Z,7.40
2023-02-13T04:02:25.767Z,7.40
2023-02-13T04:07:30.748Z,7.50
2023-02-13T04:12:41.181Z,7.50
2023-02-13T04:17:51.957Z,7.60
2023-02-13T04:22:53.778Z,7.60
2023-02-13T04:27:55.666Z,7.70
2023-02-13T04:32:57.541Z,7.80
2023-02-13T04:37:59.340Z,7.80
2023-02-13T04:43:01.213Z,7.80
2023-02-13T04:48:03.044Z,7.80
2023-02-13T04:53:04.916Z,7.80
2023-02-13T04:58:06.863Z,7.80
2023-02-13T05:03:11.380Z,7.90
2023-02-13T05:08:16.543Z,7.90
2023-02-13T05:13:21.709Z,8.00
2023-02-13T05:18:23.862Z,8.00
2023-02-13T05:23:26.301Z,8.10
2023-02-13T05:28:46.980Z,8.10
2023-02-13T05:33:48.915Z,8.10
2023-02-13T05:38:50.832Z,8.10
2023-02-13T05:43:52.651Z,8.20
2023-02-13T05:48:54.774Z,8.10
2023-02-13T05:53:56.764Z,8.20
2023-02-13T05:58:58.674Z,8.10
2023-02-13T06:04:03.668Z,8.20
2023-02-13T06:09:05.835Z,8.20
2023-02-13T06:14:07.722Z,8.20
2023-02-13T06:19:09.731Z,8.20
2023-02-13T06:24:11.554Z,8.20
2023-02-13T06:29:13.765Z,8.20
2023-02-13T06:34:16.019Z,8.10
2023-02-13T06:39:18.122Z,7.90
2023-02-13T06:44:20.012Z,7.80
2023-02-13T06:49:21.922Z,7.70
2023-02-13T06:54:37.088Z,7.70
2023-02-13T06:59:45.937Z,7.70
2023-02-13T07:04:47.901Z,7.80
2023-02-13T07:09:50.003Z,7.90
2023-02-13T07:14:52.013Z,7.90
2023-02-13T07:19:54.011Z,8.00
2023-02-13T07:24:55.925Z,8.00
2023-02-13T07:29:58.057Z,8.10
2023-02-13T07:35:02.362Z,8.00
2023-02-13T07:40:06.510Z,7.80
2023-02-13T07:45:09.039Z,7.90
2023-02-13T07:50:11.872Z,7.90
2023-02-13T07:55:13.669Z,8.00
2023-02-13T08:00:16.693Z,8.00
2023-02-13T08:05:18.861Z,8.10
2023-02-13T08:10:39.757Z,8.20
2023-02-13T08:15:41.977Z,8.10
2023-02-13T08:20:43.890Z,8.00
2023-02-13T08:25:47.671Z,8.00
2023-02-13T08:30:49.606Z,8.00
2023-02-13T08:35:51.504Z,8.00
2023-02-13T08:40:56.567Z,8.00
2023-02-13T08:46:00.602Z,8.10
2023-02-13T08:51:11.443Z,8.10
2023-02-13T08:56:13.610Z,8.10
2023-02-13T09:01:15.920Z,8.10
2023-02-13T09:06:18.101Z,8.10
2023-02-13T09:11:23.176Z,8.20
2023-02-13T09:16:25.231Z,8.20
2023-02-13T09:21:27.171Z,8.10
2023-02-13T09:26:29.068Z,8.10
2023-02-13T09:31:30.996Z,8.10
2023-02-13T09:36:33.340Z,8.20
2023-02-13T09:41:42.358Z,8.10
2023-02-13T09:46:44.595Z,8.20
2023-02-13T09:51:54.267Z,8.20
2023-02-13T09:57:15.766Z,8.30
2023-02-13T10:02:47.936Z,8.40
2023-02-13T10:08:12.562Z,8.50
2023-02-13T10:13:54.699Z,8.40
2023-02-13T10:19:19.340Z,8.40
2023-02-13T10:24:24.012Z,8.50
2023-02-13T10:30:07.073Z,8.50
2023-02-13T10:35:23.789Z,8.50
2023-02-13T10:40:32.752Z,8.60
2023-02-13T10:45:50.156Z,8.60
2023-02-13T10:51:08.172Z,8.70
2023-02-13T10:56:27.976Z,8.70
2023-02-13T11:01:40.055Z,8.80
2023-02-13T11:06:48.376Z,8.80
2023-02-13T11:11:50.801Z,8.90
2023-02-13T11:17:01.202Z,8.90
2023-02-13T11:22:13.449Z,8.90
2023-02-13T11:27:15.392Z,8.90
2023-02-13T11:32:17.520Z,9.00
2023-02-13T11:37:29.363Z,8.90
2023-02-13T11:42:35.871Z,9.10
2023-02-13T11:47:41.160Z,9.00
2023-02-13T11:58:05.000Z,9.10
2023-02-13T12:03:18.344Z,9.10
2023-02-13T12:08:21.990Z,9.10
2023-02-13T12:14:19.737Z,9.10
2023-02-13T12:20:02.519Z,9.10
2023-02-13T12:25:05.064Z,9.10
2023-02-13T12:30:23.872Z,9.20
2023-02-13T12:35:40.733Z,9.30
2023-02-13T12:41:01.735Z,9.30
2023-02-13T12:46:39.547Z,9.40
2023-02-13T12:52:05.190Z,9.50
2023-02-13T12:57:20.802Z,9.60
2023-02-13T13:02:47.785Z,9.70
2023-02-13T13:08:22.360Z,9.70
2023-02-13T13:13:35.309Z,9.70
2023-02-13T13:19:14.189Z,9.70
2023-02-13T13:24:16.237Z,9.80
2023-02-13T13:29:30.645Z,9.80
2023-02-13T13:34:36.246Z,10.00
2023-02-13T13:40:13.632Z,10.00
2023-02-13T13:45:23.805Z,10.10
2023-02-13T13:50:29.016Z,10.10
2023-02-13T13:55:50.270Z,10.10
2023-02-13T14:01:30.888Z,10.20
2023-02-13T14:06:45.546Z,10.20
2023-02-13T14:11:47.933Z,10.20
2023-02-13T14:16:51.504Z,10.10
2023-02-13T14:21:55.700Z,10.20
2023-02-13T14:27:05.777Z,10.20
2023-02-13T14:32:24.703Z,10.10
2023-02-13T14:37:36.792Z,10.00
2023-02-13T14:42:40.625Z,9.90
2023-02-13T14:47:50.864Z,9.80
2023-02-13T14:52:54.109Z,9.90
2023-02-13T14:58:18.884Z,10.00
2023-02-13T15:03:31.620Z,10.00
2023-02-13T15:08:42.582Z,10.00
2023-02-13T15:13:44.449Z,10.10
2023-02-13T15:18:52.326Z,10.20
2023-02-13T15:23:56.731Z,10.20
2023-02-13T15:29:25.869Z,10.20
2023-02-13T15:34:34.213Z,10.20
2023-02-13T15:39:36.144Z,10.10
2023-02-13T15:44:39.864Z,10.20
2023-02-13T15:49:47.510Z,10.20
2023-02-13T15:54:51.628Z,10.40
2023-02-13T15:59:55.558Z,10.50
2023-02-13T16:04:58.873Z,10.60
2023-02-13T16:10:25.704Z,10.60
2023-02-13T16:15:30.992Z,10.60
2023-02-13T16:20:35.197Z,10.50
2023-02-13T16:25:41.121Z,10.30
2023-02-13T16:30:52.572Z,10.00
2023-02-13T16:35:56.497Z,9.90
2023-02-13T16:41:05.882Z,9.90
2023-02-13T16:46:10.850Z,9.80
2023-02-13T16:51:13.254Z,9.80
2023-02-13T16:56:15.565Z,9.80
2023-02-13T17:01:18.263Z,9.80
2023-02-13T17:06:20.296Z,9.70
2023-02-13T17:11:22.886Z,9.60
2023-02-13T17:16:26.357Z,9.50
2023-02-13T17:21:28.346Z,9.40
2023-02-13T17:26:30.877Z,9.30
2023-02-13T17:31:32.993Z,9.20
2023-02-13T17:36:37.718Z,9.10
2023-02-13T17:41:44.298Z,9.00
2023-02-13T17:46:46.331Z,8.80
2023-02-13T17:51:48.253Z,8.70
2023-02-13T17:56:50.266Z,8.60
2023-02-13T18:01:52.601Z,8.50
2023-02-13T18:07:02.321Z,8.50
2023-02-13T18:12:18.659Z,8.40
2023-02-13T18:17:43.142Z,8.20
2023-02-13T18:22:54.019Z,8.00
2023-02-13T18:27:56.132Z,8.00
2023-02-13T18:32:59.254Z,7.80
2023-02-13T18:38:02.863Z,7.80
2023-02-13T18:43:07.241Z,7.70
2023-02-13T18:48:09.582Z,7.60
2023-02-13T18:53:12.241Z,7.50
2023-02-13T18:58:14.258Z,7.40
2023-02-13T19:03:17.414Z,7.40
2023-02-13T19:08:19.382Z,7.30
2023-02-13T19:13:25.274Z,7.20
2023-02-13T19:18:40.646Z,7.00
2023-02-13T19:23:44.732Z,6.90
2023-02-13T19:28:47.274Z,6.90
2023-02-13T19:33:50.447Z,6.90
2023-02-13T19:39:01.069Z,6.90
2023-02-13T19:44:03.007Z,6.70
2023-02-13T19:49:05.280Z,6.60
2023-02-13T19:54:08.785Z,6.50
2023-02-13T19:59:13.343Z,6.40
2023-02-13T20:04:15.315Z,6.40
2023-02-13T20:09:19.571Z,6.40
2023-02-13T20:14:21.899Z,6.40
2023-02-13T20:19:28.587Z,6.30
2023-02-13T20:24:30.755Z,6.20
2023-02-13T20:29:33.403Z,6.20
2023-02-13T20:34:44.373Z,6.20
2023-02-13T20:39:51.875Z,6.20
2023-02-13T20:44:54.089Z,6.20
2023-02-13T20:49:56.484Z,6.10
2023-02-13T20:55:00.831Z,6.00
2023-02-13T21:00:05.029Z,6.00
2023-02-13T21:05:07.040Z,6.00
2023-02-13T21:10:10.245Z,6.00
2023-02-13T21:15:12.156Z,6.00
2023-02-13T21:20:14.135Z,6.10
2023-02-13T21:25:16.090Z,6.10
2023-02-13T21:30:18.070Z,6.10
2023-02-13T21:35:19.923Z,6.20
2023-02-13T21:40:21.917Z,6.20
2023-02-13T21:45:23.820Z,6.30
2023-02-13T21:50:25.738Z,6.40
2023-02-13T21:55:29.168Z,6.40
2023-02-13T22:00:31.122Z,6.40
2023-02-13T22:05:32.984Z,6.50
2023-02-13T22:10:34.933Z,6.60
2023-02-13T22:15:36.940Z,6.50
2023-02-13T22:20:39.935Z,6.50
2023-02-13T22:25:47.949Z,6.50
2023-02-13T22:30:49.987Z,6.40
2023-02-13T22:35:52.530Z,6.30
2023-02-13T22:40:54.489Z,6.20
2023-02-13T22:45:56.372Z,6.20
2023-02-13T22:51:03.559Z,6.20
2023-02-13T22:56:07.084Z,6.10
2023-02-13T23:01:15.355Z,6.10
2023-02-13T23:06:18.349Z,6.00
2023-02-13T23:11:41.733Z,5.90
2023-02-13T23:17:02.548Z,5.90
2023-02-13T23:22:04.479Z,5.80
2023-02-13T23:27:06.612Z,5.90
2023-02-13T23:32:08.726Z,6.00
2023-02-13T23:37:10.637Z,6.10
2023-02-13T23:42:12.506Z,6.20
2023-02-13T23:47:14.327Z,6.20
2023-02-13T23:52:16.240Z,6.20
2023-02-13T23:57:18.452Z,6.20
